Time;durP1;ratioP1;P1;durP2;ratioP2;P2;SDS_P1;SDS_P2;PMS_P1;PMS_P2;Temp;Humidity;BMP_temperature;BMP_pressure;BME280_temperature;BME280_humidity;BME280_pressure;Samples;Min_cycle;Max_cycle;Signal;HPM_P1;HPM_P2
2022/03/25 00:00:47;;;;;;;13.93;6.80;;;;;;;;;;5073284;28;20070;-76
2022/03/25 00:03:13;;;;;;;15.32;8.23;;;;;;;;;;5072963;28;20064;-76
2022/03/25 00:05:39;;;;;;;13.35;7.57;;;;;;;;;;5072877;28;20032;-76
2022/03/25 00:08:05;;;;;;;14.73;7.70;;;;;;;;;;5073455;28;20108;-76
2022/03/25 00:10:33;;;;;;;14.43;7.07;;;;;;;;;;5073147;28;20032;-75
2022/03/25 00:12:59;;;;;;;15.80;8.02;;;;;;;;;;5073828;28;20550;-76
2022/03/25 00:15:26;;;;;;;16.17;8.00;;;;;;;;;;5072687;28;20532;-76
2022/03/25 00:17:52;;;;;;;14.10;7.13;;;;;;;;;;5072852;28;20074;-75
2022/03/25 00:20:18;;;;;;;15.30;7.60;;;;;;;;;;5072166;28;20110;-75
2022/03/25 00:22:44;;;;;;;14.32;7.90;;;;;;;;;;5072894;28;20444;-76
2022/03/25 00:25:11;;;;;;;15.57;8.65;;;;;;;;;;5071791;28;20085;-76
2022/03/25 00:27:37;;;;;;;15.93;7.20;;;;;;;;;;5071495;28;20037;-76
2022/03/25 00:30:03;;;;;;;15.85;6.68;;;;;;;;;;5068557;28;20035;-76
2022/03/25 00:32:29;;;;;;;13.13;5.75;;;;;;;;;;5071782;28;20036;-76
2022/03/25 00:34:55;;;;;;;17.75;7.30;;;;;;;;;;5072923;28;20502;-76
2022/03/25 00:37:23;;;;;;;13.82;6.47;;;;;;;;;;5072646;28;20036;-76
2022/03/25 00:39:49;;;;;;;14.95;6.80;;;;;;;;;;5072876;28;20591;-76
2022/03/25 00:42:16;;;;;;;14.30;6.32;;;;;;;;;;5072328;28;20044;-76
2022/03/25 00:44:42;;;;;;;13.00;7.18;;;;;;;;;;5072442;28;20024;-75
2022/03/25 00:47:08;;;;;;;14.38;6.82;;;;;;;;;;5071719;28;20032;-76
2022/03/25 00:49:35;;;;;;;12.15;5.82;;;;;;;;;;5072446;28;20056;-76
2022/03/25 00:52:01;;;;;;;12.73;6.82;;;;;;;;;;5071851;28;20025;-76
2022/03/25 00:54:27;;;;;;;15.63;6.88;;;;;;;;;;5071752;28;20032;-76
2022/03/25 00:56:54;;;;;;;15.98;6.70;;;;;;;;;;5071501;28;20036;-76
2022/03/25 00:59:20;;;;;;;14.45;6.72;;;;;;;;;;5071319;28;20032;-76
2022/03/25 01:01:47;;;;;;;10.52;6.53;;;;;;;;;;5071877;28;20456;-75
2022/03/25 01:04:13;;;;;;;10.60;5.78;;;;;;;;;;5070946;28;20086;-76
2022/03/25 01:06:39;;;;;;;15.90;7.00;;;;;;;;;;5071796;28;20032;-76
2022/03/25 01:09:08;;;;;;;15.60;6.78;;;;;;;;;;5070738;28;20021;-76
2022/03/25 01:11:35;;;;;;;13.77;6.95;;;;;;;;;;5071867;28;20670;-76
2022/03/25 01:14:01;;;;;;;10.85;5.97;;;;;;;;;;5071091;28;20058;-76
2022/03/25 01:16:27;;;;;;;11.40;6.15;;;;;;;;;;5071546;28;20079;-76
2022/03/25 01:18:53;;;;;;;12.43;6.72;;;;;;;;;;5070695;28;20029;-76
2022/03/25 01:21:19;;;;;;;12.13;5.57;;;;;;;;;;5071138;28;20060;-75
2022/03/25 01:23:46;;;;;;;12.40;6.03;;;;;;;;;;5070987;28;20024;-76
2022/03/25 01:26:12;;;;;;;16.00;5.88;;;;;;;;;;5070614;28;20024;-76
2022/03/25 01:28:39;;;;;;;13.02;6.25;;;;;;;;;;5071585;28;20052;-76
2022/03/25 01:31:06;;;;;;;14.82;6.28;;;;;;;;;;5066104;28;20045;-76
2022/03/25 01:33:33;;;;;;;12.23;5.65;;;;;;;;;;5033521;28;20065;-76
2022/03/25 01:35:59;;;;;;;14.00;6.00;;;;;;;;;;5034110;28;20731;-76
2022/03/25 01:38:28;;;;;;;11.75;6.32;;;;;;;;;;5055221;28;20033;-76
2022/03/25 01:40:56;;;;;;;12.88;5.35;;;;;;;;;;5050881;28;20071;-76
2022/03/25 01:43:22;;;;;;;11.52;6.05;;;;;;;;;;5051254;28;20477;-76
2022/03/25 01:45:48;;;;;;;11.48;5.90;;;;;;;;;;5051019;28;20376;-76
2022/03/25 01:48:16;;;;;;;15.18;6.50;;;;;;;;;;5050968;28;20737;-76
2022/03/25 01:50:43;;;;;;;9.70;5.20;;;;;;;;;;5051257;28;20027;-76
2022/03/25 01:53:11;;;;;;;10.07;5.55;;;;;;;;;;5051007;28;20734;-76
2022/03/25 01:55:38;;;;;;;14.43;6.03;;;;;;;;;;5051329;28;20024;-76
2022/03/25 01:58:05;;;;;;;14.07;6.65;;;;;;;;;;5051051;28;20091;-76
2022/03/25 02:00:32;;;;;;;12.18;5.45;;;;;;;;;;5032384;28;20036;-76
2022/03/25 02:02:58;;;;;;;11.40;5.60;;;;;;;;;;5046905;28;20535;-75
2022/03/25 02:05:24;;;;;;;13.90;5.40;;;;;;;;;;5050727;28;20041;-75
2022/03/25 02:07:50;;;;;;;9.88;5.10;;;;;;;;;;5050718;28;20112;-76
2022/03/25 02:10:17;;;;;;;12.13;5.25;;;;;;;;;;5050797;28;20460;-76
2022/03/25 02:12:44;;;;;;;12.10;4.85;;;;;;;;;;5050121;28;20029;-76
2022/03/25 02:15:10;;;;;;;10.73;5.00;;;;;;;;;;5050748;28;20115;-76
2022/03/25 02:17:37;;;;;;;9.13;5.07;;;;;;;;;;5049706;28;20044;-76
2022/03/25 02:20:08;;;;;;;13.07;5.82;;;;;;;;;;5050872;28;20069;-76
2022/03/25 02:22:35;;;;;;;9.32;5.43;;;;;;;;;;5050379;28;20025;-76
2022/03/25 02:25:01;;;;;;;15.27;5.80;;;;;;;;;;5050706;28;20033;-76
2022/03/25 02:27:27;;;;;;;11.70;4.97;;;;;;;;;;5050730;28;20029;-76
2022/03/25 02:29:53;;;;;;;9.20;5.47;;;;;;;;;;5050253;28;20040;-76
2022/03/25 02:32:21;;;;;;;10.30;4.57;;;;;;;;;;5050882;28;20033;-76
2022/03/25 02:34:47;;;;;;;12.43;4.60;;;;;;;;;;5040538;28;20025;-76
2022/03/25 02:37:13;;;;;;;11.30;5.10;;;;;;;;;;5030428;28;20456;-76
2022/03/25 02:39:39;;;;;;;10.48;4.72;;;;;;;;;;5058767;28;20079;-76
2022/03/25 02:42:05;;;;;;;9.70;4.95;;;;;;;;;;5050873;28;20056;-76
2022/03/25 02:44:31;;;;;;;15.52;6.03;;;;;;;;;;5053043;28;20032;-76
2022/03/25 02:46:57;;;;;;;11.52;5.45;;;;;;;;;;5054875;28;20053;-76
2022/03/25 02:49:24;;;;;;;15.63;5.03;;;;;;;;;;5054017;28;20072;-76
2022/03/25 02:51:50;;;;;;;10.90;5.88;;;;;;;;;;5054929;28;20792;-75
2022/03/25 02:54:16;;;;;;;11.10;5.10;;;;;;;;;;5054182;28;20033;-76
2022/03/25 02:56:42;;;;;;;11.57;5.50;;;;;;;;;;5039852;28;20644;-75
2022/03/25 02:59:08;;;;;;;10.18;4.60;;;;;;;;;;5036363;28;20087;-76
2022/03/25 03:01:34;;;;;;;14.75;6.00;;;;;;;;;;5054476;28;20541;-76
2022/03/25 03:04:00;;;;;;;9.25;4.85;;;;;;;;;;5050419;28;20132;-76
2022/03/25 03:06:26;;;;;;;10.80;5.30;;;;;;;;;;5054077;28;20025;-76
2022/03/25 03:08:52;;;;;;;11.13;5.78;;;;;;;;;;5054353;28;20035;-75
2022/03/25 03:11:18;;;;;;;10.35;5.28;;;;;;;;;;5053744;28;20669;-75
2022/03/25 03:13:44;;;;;;;10.27;4.75;;;;;;;;;;5054412;28;20124;-76
2022/03/25 03:16:11;;;;;;;13.77;5.43;;;;;;;;;;5068239;28;20036;-76
2022/03/25 03:18:37;;;;;;;8.30;4.90;;;;;;;;;;5074381;28;20116;-76
2022/03/25 03:21:03;;;;;;;11.40;5.22;;;;;;;;;;5061354;28;20029;-75
2022/03/25 03:23:29;;;;;;;12.80;5.38;;;;;;;;;;5054911;28;20035;-76
2022/03/25 03:25:55;;;;;;;9.63;4.32;;;;;;;;;;5073203;28;20024;-76
2022/03/25 03:28:21;;;;;;;12.98;5.15;;;;;;;;;;5060929;28;20133;-76
2022/03/25 03:30:47;;;;;;;11.40;6.45;;;;;;;;;;5051627;28;20803;-76
2022/03/25 03:33:13;;;;;;;12.57;5.00;;;;;;;;;;5051419;28;20083;-76
2022/03/25 03:35:39;;;;;;;9.98;5.13;;;;;;;;;;5039457;28;20048;-75
2022/03/25 03:38:05;;;;;;;12.57;5.90;;;;;;;;;;5053921;28;20115;-76
2022/03/25 03:40:32;;;;;;;11.65;5.40;;;;;;;;;;5043194;28;20568;-76
2022/03/25 03:42:58;;;;;;;12.18;5.63;;;;;;;;;;5051149;28;20465;-76
2022/03/25 03:45:24;;;;;;;16.98;5.90;;;;;;;;;;5032970;28;20030;-76
2022/03/25 03:47:50;;;;;;;12.00;6.07;;;;;;;;;;5043356;28;20034;-75
2022/03/25 03:50:17;;;;;;;11.52;5.30;;;;;;;;;;5043153;28;20036;-76
2022/03/25 03:52:44;;;;;;;9.55;4.78;;;;;;;;;;5036773;28;20110;-76
2022/03/25 03:55:12;;;;;;;13.13;5.72;;;;;;;;;;5033322;28;20034;-76
2022/03/25 03:57:39;;;;;;;9.80;4.65;;;;;;;;;;5044362;28;20037;-75
2022/03/25 04:00:06;;;;;;;13.27;5.05;;;;;;;;;;5052924;28;20044;-76
2022/03/25 04:02:32;;;;;;;9.50;5.15;;;;;;;;;;5048003;28;20051;-76
2022/03/25 04:04:58;;;;;;;14.73;5.75;;;;;;;;;;5053441;28;20529;-76
2022/03/25 04:07:24;;;;;;;10.65;5.40;;;;;;;;;;5052448;28;20037;-76
2022/03/25 04:09:51;;;;;;;10.73;6.20;;;;;;;;;;5041024;28;20092;-76
2022/03/25 04:12:17;;;;;;;13.32;5.90;;;;;;;;;;5044402;28;20996;-76
2022/03/25 04:14:44;;;;;;;9.25;5.55;;;;;;;;;;5037959;28;20403;-75
2022/03/25 04:17:11;;;;;;;11.25;5.85;;;;;;;;;;5036883;28;20318;-75
2022/03/25 04:19:37;;;;;;;11.50;6.00;;;;;;;;;;5052999;28;20044;-75
2022/03/25 04:22:03;;;;;;;12.95;5.95;;;;;;;;;;5052663;28;20029;-76
2022/03/25 04:24:29;;;;;;;13.93;6.35;;;;;;;;;;5053029;28;20272;-75
2022/03/25 04:26:55;;;;;;;13.68;6.07;;;;;;;;;;5052817;28;20475;-76
2022/03/25 04:29:22;;;;;;;14.23;5.78;;;;;;;;;;5052588;28;20488;-76
2022/03/25 04:31:48;;;;;;;15.00;5.32;;;;;;;;;;5052883;28;20029;-75
2022/03/25 04:34:14;;;;;;;12.05;5.05;;;;;;;;;;5035292;28;20782;-76
2022/03/25 04:36:40;;;;;;;14.18;6.05;;;;;;;;;;5032945;28;20083;-76
2022/03/25 04:39:06;;;;;;;15.63;6.30;;;;;;;;;;5050534;28;20041;-76
2022/03/25 04:41:32;;;;;;;14.88;6.28;;;;;;;;;;5052517;28;20025;-76
2022/03/25 04:43:58;;;;;;;14.40;5.93;;;;;;;;;;5040874;28;20084;-76
2022/03/25 04:46:24;;;;;;;13.70;6.40;;;;;;;;;;5039127;28;20108;-76
2022/03/25 04:48:51;;;;;;;19.35;6.32;;;;;;;;;;5048782;28;20069;-75
2022/03/25 04:51:17;;;;;;;14.32;5.35;;;;;;;;;;5037730;28;20593;-76
2022/03/25 04:53:43;;;;;;;11.55;5.80;;;;;;;;;;5051173;28;20036;-76
2022/03/25 04:56:09;;;;;;;10.98;6.32;;;;;;;;;;5052638;28;20025;-75
2022/03/25 04:58:35;;;;;;;10.38;5.45;;;;;;;;;;5052012;28;20112;-76
2022/03/25 05:01:01;;;;;;;13.27;5.97;;;;;;;;;;5052037;28;20115;-76
2022/03/25 05:03:28;;;;;;;15.05;6.35;;;;;;;;;;5060447;28;20380;-76
2022/03/25 05:05:54;;;;;;;13.63;6.10;;;;;;;;;;5072434;28;20788;-76
2022/03/25 05:08:21;;;;;;;11.57;6.00;;;;;;;;;;5064643;28;20032;-76
2022/03/25 05:10:47;;;;;;;29.10;17.88;;;;;;;;;;5052392;28;20059;-76
2022/03/25 05:13:13;;;;;;;15.10;7.72;;;;;;;;;;5052494;28;20111;-76
2022/03/25 05:15:39;;;;;;;13.75;8.55;;;;;;;;;;5052038;28;20124;-76
2022/03/25 05:18:05;;;;;;;14.75;7.22;;;;;;;;;;5044796;28;20029;-76
2022/03/25 05:20:31;;;;;;;17.65;7.45;;;;;;;;;;5046968;28;20080;-76
2022/03/25 05:22:57;;;;;;;18.77;7.65;;;;;;;;;;5047866;28;20690;-75
2022/03/25 05:25:24;;;;;;;20.80;7.55;;;;;;;;;;5050787;28;20033;-76
2022/03/25 05:27:51;;;;;;;14.90;7.10;;;;;;;;;;5035467;28;20107;-76
2022/03/25 05:30:19;;;;;;;17.73;7.55;;;;;;;;;;5059890;28;20035;-76
2022/03/25 05:32:45;;;;;;;14.63;6.13;;;;;;;;;;5059855;28;20072;-76
2022/03/25 05:35:11;;;;;;;15.18;6.85;;;;;;;;;;5051465;28;20065;-76
2022/03/25 05:37:38;;;;;;;20.67;8.23;;;;;;;;;;5051916;28;20106;-76
2022/03/25 05:40:06;;;;;;;16.25;7.50;;;;;;;;;;5049908;28;20498;-76
2022/03/25 05:42:32;;;;;;;23.45;8.68;;;;;;;;;;5032304;28;20104;-76
2022/03/25 05:44:58;;;;;;;14.63;7.28;;;;;;;;;;5036032;28;20803;-75
2022/03/25 05:47:25;;;;;;;21.33;7.18;;;;;;;;;;5051917;28;20036;-76
2022/03/25 05:49:51;;;;;;;23.02;8.82;;;;;;;;;;5041203;28;20059;-75
2022/03/25 05:52:17;;;;;;;16.77;8.07;;;;;;;;;;5050713;28;20743;-76
2022/03/25 05:54:43;;;;;;;16.55;8.38;;;;;;;;;;5050019;28;20427;-76
2022/03/25 05:57:09;;;;;;;15.82;8.05;;;;;;;;;;5049989;28;20036;-76
2022/03/25 05:59:35;;;;;;;19.38;11.07;;;;;;;;;;5050121;28;20033;-76
2022/03/25 06:02:01;;;;;;;21.70;10.15;;;;;;;;;;5038433;28;20034;-76
2022/03/25 06:04:28;;;;;;;22.52;10.07;;;;;;;;;;5031394;28;20029;-75
2022/03/25 06:06:54;;;;;;;19.45;9.98;;;;;;;;;;5037893;28;20061;-75
2022/03/25 06:09:20;;;;;;;23.73;11.48;;;;;;;;;;5039807;28;20036;-75
2022/03/25 06:11:46;;;;;;;25.00;9.93;;;;;;;;;;5048686;28;20039;-75
2022/03/25 06:14:12;;;;;;;34.55;9.23;;;;;;;;;;5050045;28;20043;-75
2022/03/25 06:16:41;;;;;;;25.73;10.10;;;;;;;;;;5048920;28;20376;-76
2022/03/25 06:19:07;;;;;;;18.60;8.80;;;;;;;;;;5048799;28;20695;-75
2022/03/25 06:21:33;;;;;;;18.77;8.30;;;;;;;;;;5043241;28;20047;-76
2022/03/25 06:23:59;;;;;;;25.08;9.25;;;;;;;;;;5040881;28;20072;-76
2022/03/25 06:26:25;;;;;;;21.80;8.60;;;;;;;;;;5039724;28;20414;-77
2022/03/25 06:28:51;;;;;;;20.00;8.00;;;;;;;;;;5040271;28;20037;-76
2022/03/25 06:31:17;;;;;;;21.50;10.05;;;;;;;;;;5042129;28;20104;-74
2022/03/25 06:33:43;;;;;;;22.00;8.90;;;;;;;;;;5039463;28;20176;-74
2022/03/25 06:36:13;;;;;;;17.23;8.43;;;;;;;;;;5036449;28;20022;-74
2022/03/25 06:38:39;;;;;;;19.90;8.98;;;;;;;;;;5044707;28;20033;-76
2022/03/25 06:41:05;;;;;;;22.08;8.95;;;;;;;;;;5049516;28;20460;-76
2022/03/25 06:43:31;;;;;;;21.95;10.25;;;;;;;;;;5065971;28;20033;-76
2022/03/25 06:45:58;;;;;;;30.30;11.02;;;;;;;;;;5047977;28;20033;-76
2022/03/25 06:48:24;;;;;;;31.73;10.50;;;;;;;;;;5046917;28;20044;-76
2022/03/25 06:50:50;;;;;;;25.05;8.95;;;;;;;;;;5051152;28;20084;-76
2022/03/25 06:53:16;;;;;;;22.08;9.73;;;;;;;;;;5051149;28;20033;-76
2022/03/25 06:55:44;;;;;;;18.42;7.85;;;;;;;;;;5051454;28;20041;-76
2022/03/25 06:58:10;;;;;;;17.13;7.85;;;;;;;;;;5056114;28;20024;-76
2022/03/25 07:00:37;;;;;;;18.27;7.25;;;;;;;;;;5051003;28;20039;-76
2022/03/25 07:03:03;;;;;;;24.05;8.35;;;;;;;;;;5035684;28;20037;-76
2022/03/25 07:05:32;;;;;;;19.13;8.07;;;;;;;;;;5049857;28;20040;-76
2022/03/25 07:07:58;;;;;;;16.63;7.80;;;;;;;;;;5049688;28;20522;-76
2022/03/25 07:10:26;;;;;;;19.85;8.02;;;;;;;;;;5041244;28;20057;-76
2022/03/25 07:12:53;;;;;;;15.77;8.10;;;;;;;;;;5043957;28;20030;-76
2022/03/25 07:15:20;;;;;;;14.10;7.25;;;;;;;;;;5041568;28;20033;-76
2022/03/25 07:17:46;;;;;;;17.75;7.20;;;;;;;;;;5031841;28;20028;-76
2022/03/25 07:20:14;;;;;;;14.93;7.95;;;;;;;;;;5047735;28;20037;-76
2022/03/25 07:22:41;;;;;;;14.85;7.63;;;;;;;;;;5051088;28;20075;-76
2022/03/25 07:25:07;;;;;;;15.98;7.00;;;;;;;;;;5050492;28;20037;-76
2022/03/25 07:27:33;;;;;;;16.05;7.65;;;;;;;;;;5050725;28;20341;-76
2022/03/25 07:29:59;;;;;;;13.88;6.72;;;;;;;;;;5050333;28;20032;-76
2022/03/25 07:32:25;;;;;;;21.52;7.90;;;;;;;;;;5054554;28;20036;-76
2022/03/25 07:34:51;;;;;;;19.52;8.13;;;;;;;;;;5041778;28;20033;-76
2022/03/25 07:37:17;;;;;;;19.25;8.90;;;;;;;;;;5050762;28;20361;-76
2022/03/25 07:39:44;;;;;;;22.02;8.90;;;;;;;;;;5053893;28;20037;-76
2022/03/25 07:42:10;;;;;;;13.00;7.88;;;;;;;;;;5054187;28;20037;-76
2022/03/25 07:44:39;;;;;;;16.00;7.63;;;;;;;;;;5054113;28;20135;-76
2022/03/25 07:47:05;;;;;;;14.82;6.82;;;;;;;;;;5040619;28;20076;-76
2022/03/25 07:49:34;;;;;;;13.00;7.38;;;;;;;;;;5041435;28;20039;-76
2022/03/25 07:52:00;;;;;;;12.60;7.10;;;;;;;;;;5050250;28;20738;-76
2022/03/25 07:54:26;;;;;;;16.60;6.55;;;;;;;;;;5033606;28;20037;-76
2022/03/25 07:56:55;;;;;;;19.63;7.55;;;;;;;;;;5048464;28;20064;-76
2022/03/25 07:59:21;;;;;;;13.25;6.80;;;;;;;;;;5053879;28;20080;-76
2022/03/25 08:01:47;;;;;;;19.50;7.05;;;;;;;;;;5065267;28;20028;-76
2022/03/25 08:04:14;;;;;;;14.77;7.18;;;;;;;;;;5068190;28;20067;-76
2022/03/25 08:06:41;;;;;;;14.38;6.68;;;;;;;;;;5052450;28;20447;-76
2022/03/25 08:09:07;;;;;;;15.05;7.50;;;;;;;;;;5045161;28;20025;-76
2022/03/25 08:11:33;;;;;;;12.95;6.63;;;;;;;;;;5044059;28;20059;-76
2022/03/25 08:13:59;;;;;;;15.40;6.28;;;;;;;;;;5053415;28;20074;-76
2022/03/25 08:16:25;;;;;;;12.65;4.90;;;;;;;;;;5051895;28;20783;-76
2022/03/25 08:18:52;;;;;;;10.65;5.20;;;;;;;;;;5053091;28;20837;-76
2022/03/25 08:21:18;;;;;;;12.23;5.72;;;;;;;;;;5047968;28;20017;-76
2022/03/25 08:29:14;;;;;;;16.55;6.32;;;;;;;;;;5044973;28;20486;-76
2022/03/25 08:31:40;;;;;;;19.77;6.30;;;;;;;;;;5051066;28;20029;-76
2022/03/25 08:34:08;;;;;;;14.38;6.05;;;;;;;;;;5053495;28;20030;-76
2022/03/25 08:36:34;;;;;;;12.93;6.03;;;;;;;;;;5036557;28;20033;-76
2022/03/25 08:39:00;;;;;;;14.32;6.80;;;;;;;;;;5052880;28;20033;-76
2022/03/25 08:41:26;;;;;;;17.48;6.68;;;;;;;;;;5065964;28;20070;-76
2022/03/25 08:43:52;;;;;;;11.95;6.85;;;;;;;;;;5067204;28;20490;-76
2022/03/25 08:46:20;;;;;;;19.80;6.13;;;;;;;;;;5052989;28;20036;-76
2022/03/25 08:48:46;;;;;;;12.20;6.07;;;;;;;;;;5045829;28;20112;-76
2022/03/25 08:51:12;;;;;;;15.57;5.65;;;;;;;;;;5040623;28;20029;-76
2022/03/25 08:53:39;;;;;;;12.27;4.85;;;;;;;;;;5046406;28;20111;-76
2022/03/25 08:56:05;;;;;;;17.95;5.78;;;;;;;;;;5052055;28;20506;-76
2022/03/25 08:58:31;;;;;;;9.57;5.63;;;;;;;;;;5051893;28;20567;-76
2022/03/25 09:00:58;;;;;;;11.82;5.93;;;;;;;;;;5038871;28;20056;-76
2022/03/25 09:03:24;;;;;;;11.23;5.10;;;;;;;;;;5051822;28;20778;-76
2022/03/25 09:05:50;;;;;;;12.93;5.07;;;;;;;;;;5051008;28;20447;-76
2022/03/25 09:08:17;;;;;;;11.50;5.85;;;;;;;;;;5052499;28;20452;-76
2022/03/25 09:10:44;;;;;;;13.00;5.25;;;;;;;;;;5051736;28;20033;-76
2022/03/25 09:13:11;;;;;;;14.15;5.82;;;;;;;;;;5072151;28;20499;-76
2022/03/25 09:15:37;;;;;;;11.30;6.00;;;;;;;;;;5069142;28;20075;-76
2022/03/25 09:18:03;;;;;;;11.70;5.53;;;;;;;;;;5032956;28;20036;-76
2022/03/25 09:20:30;;;;;;;13.75;6.00;;;;;;;;;;5042181;28;20075;-76
2022/03/25 09:22:56;;;;;;;17.08;6.07;;;;;;;;;;5044002;28;20032;-76
2022/03/25 09:25:25;;;;;;;14.82;6.75;;;;;;;;;;5051923;28;20468;-76
2022/03/25 09:27:51;;;;;;;18.08;5.97;;;;;;;;;;5050308;28;20025;-76
2022/03/25 09:30:17;;;;;;;15.48;6.25;;;;;;;;;;5037021;28;20044;-76
2022/03/25 09:32:44;;;;;;;20.42;6.20;;;;;;;;;;5049124;28;20032;-76
2022/03/25 09:35:10;;;;;;;20.85;5.78;;;;;;;;;;5035698;28;20723;-76
2022/03/25 09:37:40;;;;;;;16.42;5.68;;;;;;;;;;5049950;28;20037;-76
2022/03/25 09:40:08;;;;;;;13.43;5.38;;;;;;;;;;5031905;28;20041;-76
2022/03/25 09:42:34;;;;;;;16.45;5.75;;;;;;;;;;5046847;28;20042;-76
2022/03/25 09:45:01;;;;;;;14.57;5.63;;;;;;;;;;5052028;28;20029;-76
2022/03/25 09:47:30;;;;;;;12.15;6.20;;;;;;;;;;5042029;28;20541;-76
2022/03/25 09:49:56;;;;;;;12.23;5.55;;;;;;;;;;5034480;28;20119;-76
2022/03/25 09:52:23;;;;;;;13.57;6.10;;;;;;;;;;5035124;28;20033;-77
2022/03/25 09:54:49;;;;;;;22.73;8.27;;;;;;;;;;5056373;28;20045;-76
2022/03/25 09:57:15;;;;;;;15.10;7.78;;;;;;;;;;5048932;28;20108;-76
2022/03/25 09:59:41;;;;;;;13.13;7.40;;;;;;;;;;5050125;28;20147;-76
2022/03/25 10:02:08;;;;;;;14.98;7.80;;;;;;;;;;5050401;28;20029;-76
2022/03/25 10:04:36;;;;;;;19.35;9.30;;;;;;;;;;5046268;28;20042;-76
2022/03/25 10:07:14;;;;;;;14.07;8.10;;;;;;;;;;5041280;28;20044;-76
2022/03/25 10:09:40;;;;;;;16.23;8.10;;;;;;;;;;5050702;28;20032;-76
2022/03/25 10:12:25;;;;;;;17.25;8.82;;;;;;;;;;5051211;28;20423;-76
2022/03/25 10:14:53;;;;;;;16.08;9.60;;;;;;;;;;5036927;28;20029;-76
2022/03/25 10:17:19;;;;;;;19.02;11.05;;;;;;;;;;5035325;28;20104;-76
2022/03/25 10:19:49;;;;;;;24.52;10.43;;;;;;;;;;5038268;28;20041;-76
2022/03/25 10:22:19;;;;;;;17.95;10.63;;;;;;;;;;5051660;28;20415;-76
2022/03/25 10:24:48;;;;;;;17.35;10.27;;;;;;;;;;5046647;28;20025;-76
2022/03/25 10:27:24;;;;;;;17.40;10.65;;;;;;;;;;5049709;28;20345;-76
2022/03/25 10:29:50;;;;;;;22.15;12.00;;;;;;;;;;5036418;28;20175;-77
2022/03/25 10:32:24;;;;;;;18.38;11.48;;;;;;;;;;5050929;28;20033;-76
2022/03/25 10:35:10;;;;;;;21.73;11.40;;;;;;;;;;5039349;28;20036;-76
2022/03/25 10:37:38;;;;;;;22.13;11.70;;;;;;;;;;5030890;28;20124;-76
2022/03/25 10:40:07;;;;;;;17.27;10.90;;;;;;;;;;5031039;28;20033;-76
2022/03/25 10:42:36;;;;;;;17.02;9.35;;;;;;;;;;5031582;28;20095;-76
2022/03/25 10:45:23;;;;;;;20.42;12.98;;;;;;;;;;5032952;28;20037;-76
2022/03/25 10:48:09;;;;;;;17.42;10.82;;;;;;;;;;5051395;28;20029;-76
2022/03/25 10:50:53;;;;;;;22.02;12.40;;;;;;;;;;5044560;28;20041;-76
2022/03/25 10:53:21;;;;;;;26.35;11.90;;;;;;;;;;5040704;28;20036;-76
2022/03/25 10:56:01;;;;;;;22.85;14.93;;;;;;;;;;5044356;28;20046;-76
2022/03/25 10:58:27;;;;;;;24.25;14.95;;;;;;;;;;5043375;28;20442;-76
2022/03/25 11:00:53;;;;;;;29.75;14.05;;;;;;;;;;5050186;28;20041;-76
2022/03/25 11:03:20;;;;;;;26.20;15.48;;;;;;;;;;5046854;28;20052;-76
2022/03/25 11:05:46;;;;;;;26.92;16.65;;;;;;;;;;5053277;28;20108;-76
2022/03/25 11:08:12;;;;;;;24.13;16.08;;;;;;;;;;5053275;28;20025;-76
2022/03/25 11:10:39;;;;;;;28.42;17.30;;;;;;;;;;5052942;28;20459;-76
2022/03/25 11:13:05;;;;;;;26.50;15.88;;;;;;;;;;5052364;28;20033;-76
2022/03/25 11:15:32;;;;;;;27.83;16.73;;;;;;;;;;5054269;28;20073;-76
2022/03/25 11:17:58;;;;;;;26.55;17.52;;;;;;;;;;5054541;28;20043;-76
2022/03/25 11:20:25;;;;;;;28.10;17.42;;;;;;;;;;5054351;28;20039;-76
2022/03/25 11:23:06;;;;;;;23.77;16.40;;;;;;;;;;5054693;28;20036;-76
2022/03/25 11:25:36;;;;;;;26.08;16.35;;;;;;;;;;5070669;28;20023;-76
2022/03/25 11:28:04;;;;;;;28.92;18.50;;;;;;;;;;5045083;28;20029;-76
2022/03/25 11:30:35;;;;;;;30.08;18.35;;;;;;;;;;5034646;28;20762;-76
2022/03/25 11:33:02;;;;;;;31.02;17.40;;;;;;;;;;5054495;28;20040;-76
2022/03/25 11:35:32;;;;;;;26.73;17.63;;;;;;;;;;5048285;28;20048;-76
2022/03/25 11:38:13;;;;;;;26.10;17.10;;;;;;;;;;5033734;28;20067;-76
2022/03/25 11:40:39;;;;;;;30.42;17.33;;;;;;;;;;5053364;28;20065;-76
2022/03/25 11:43:19;;;;;;;28.58;17.35;;;;;;;;;;5054720;28;20452;-76
2022/03/25 11:45:46;;;;;;;29.55;18.58;;;;;;;;;;5053163;28;20103;-76
2022/03/25 11:48:12;;;;;;;31.63;18.45;;;;;;;;;;5053763;28;20368;-76
2022/03/25 11:50:42;;;;;;;32.30;18.05;;;;;;;;;;5053556;28;20037;-76
2022/03/25 11:53:11;;;;;;;30.52;18.70;;;;;;;;;;5050028;28;20112;-76
2022/03/25 11:55:56;;;;;;;32.47;19.40;;;;;;;;;;5053392;28;20051;-76
2022/03/25 11:58:22;;;;;;;36.25;19.45;;;;;;;;;;5046361;28;20037;-76
2022/03/25 12:00:48;;;;;;;32.40;19.85;;;;;;;;;;5053320;28;20535;-76
2022/03/25 12:03:15;;;;;;;32.70;20.88;;;;;;;;;;5033078;28;20049;-76
2022/03/25 12:05:58;;;;;;;31.05;20.85;;;;;;;;;;5053570;28;20041;-76
2022/03/25 12:08:24;;;;;;;33.45;20.52;;;;;;;;;;5036220;28;20029;-76
2022/03/25 12:10:51;;;;;;;33.45;20.70;;;;;;;;;;5044807;28;20033;-76
2022/03/25 12:13:18;;;;;;;31.33;19.33;;;;;;;;;;5052996;28;20029;-76
2022/03/25 12:15:45;;;;;;;33.35;19.17;;;;;;;;;;5052934;28;20041;-76
2022/03/25 12:18:29;;;;;;;33.63;19.45;;;;;;;;;;5053582;28;20087;-75
2022/03/25 12:20:55;;;;;;;32.13;20.23;;;;;;;;;;5052509;28;20040;-76
2022/03/25 12:23:21;;;;;;;37.65;21.50;;;;;;;;;;5053306;28;20025;-76
2022/03/25 12:25:47;;;;;;;33.20;19.70;;;;;;;;;;5052926;28;20033;-76
2022/03/25 12:28:13;;;;;;;33.05;20.80;;;;;;;;;;5049259;28;20032;-76
2022/03/25 12:30:39;;;;;;;29.77;18.30;;;;;;;;;;5050692;28;20464;-76
2022/03/25 12:33:06;;;;;;;39.15;21.13;;;;;;;;;;5054680;28;20854;-76
2022/03/25 12:35:33;;;;;;;41.17;21.52;;;;;;;;;;5052919;28;20060;-76
2022/03/25 12:38:09;;;;;;;31.88;19.35;;;;;;;;;;5054218;28;20033;-76
2022/03/25 12:40:36;;;;;;;33.55;19.83;;;;;;;;;;5053725;28;20075;-76
2022/03/25 12:43:08;;;;;;;32.83;18.77;;;;;;;;;;5037935;28;20030;-76
2022/03/25 12:45:37;;;;;;;;;;;;;;;;;;5045647;28;20025;-76
2022/03/25 12:48:11;;;;;;;29.90;19.40;;;;;;;;;;5053596;28;19920;-77
2022/03/25 12:50:38;;;;;;;33.40;19.77;;;;;;;;;;5051681;28;20112;-76
2022/03/25 12:53:05;;;;;;;38.28;19.17;;;;;;;;;;5050242;28;20486;-76
2022/03/25 12:55:32;;;;;;;29.25;19.05;;;;;;;;;;5057625;28;20380;-76
2022/03/25 12:58:11;;;;;;;30.83;19.00;;;;;;;;;;5053536;28;20119;-76
2022/03/25 13:00:37;;;;;;;33.17;18.80;;;;;;;;;;5055790;28;20104;-76
2022/03/25 13:03:03;;;;;;;32.97;17.67;;;;;;;;;;5052679;28;20053;-76
2022/03/25 13:05:31;;;;;;;30.90;16.23;;;;;;;;;;5038938;28;20036;-76
2022/03/25 13:07:57;;;;;;;29.30;17.20;;;;;;;;;;5052110;28;20032;-76
2022/03/25 13:10:23;;;;;;;25.02;17.85;;;;;;;;;;5052100;28;20398;-76
2022/03/25 13:12:52;;;;;;;26.98;17.45;;;;;;;;;;5037991;28;20042;-76
2022/03/25 13:15:23;;;;;;;30.63;17.15;;;;;;;;;;5032859;28;20057;-76
2022/03/25 13:17:51;;;;;;;31.90;16.40;;;;;;;;;;5033599;28;20066;-76
2022/03/25 13:20:19;;;;;;;26.67;16.58;;;;;;;;;;5032871;28;20029;-76
2022/03/25 13:23:00;;;;;;;27.83;17.38;;;;;;;;;;5051686;28;20071;-76
2022/03/25 13:25:26;;;;;;;27.50;16.55;;;;;;;;;;5047877;28;20025;-76
2022/03/25 13:27:54;;;;;;;29.60;17.65;;;;;;;;;;5052189;28;20443;-76
2022/03/25 13:30:20;;;;;;;29.42;16.98;;;;;;;;;;5052182;28;20079;-76
2022/03/25 13:32:46;;;;;;;27.73;17.17;;;;;;;;;;5052110;28;20074;-76
2022/03/25 13:35:13;;;;;;;26.90;15.85;;;;;;;;;;5043949;28;20041;-76
2022/03/25 13:37:40;;;;;;;27.05;16.38;;;;;;;;;;5032563;28;20033;-76
2022/03/25 13:40:25;;;;;;;24.95;16.63;;;;;;;;;;5032570;28;20033;-76
2022/03/25 13:42:55;;;;;;;26.77;15.70;;;;;;;;;;5042714;28;20049;-76
2022/03/25 13:45:21;;;;;;;24.77;15.60;;;;;;;;;;5046730;28;20472;-76
2022/03/25 13:48:02;;;;;;;31.92;16.92;;;;;;;;;;5062204;28;20032;-76
2022/03/25 13:50:29;;;;;;;24.98;16.13;;;;;;;;;;5066070;28;20036;-76
2022/03/25 13:53:03;;;;;;;28.80;16.70;;;;;;;;;;5047056;28;20032;-76
2022/03/25 13:55:31;;;;;;;25.25;15.65;;;;;;;;;;5041325;28;20030;-76
2022/03/25 13:57:58;;;;;;;23.73;15.55;;;;;;;;;;5054359;28;20037;-76
2022/03/25 14:00:38;;;;;;;25.13;16.17;;;;;;;;;;5033925;28;20069;-76
2022/03/25 14:03:04;;;;;;;26.60;15.40;;;;;;;;;;5042049;28;20083;-76
2022/03/25 14:05:34;;;;;;;26.70;15.30;;;;;;;;;;5032331;28;20060;-76
2022/03/25 14:08:00;;;;;;;24.60;14.75;;;;;;;;;;5036902;28;20029;-76
2022/03/25 14:10:26;;;;;;;25.83;14.50;;;;;;;;;;5031527;28;20830;-76
2022/03/25 14:13:01;;;;;;;23.42;14.57;;;;;;;;;;5034307;28;20662;-76
2022/03/25 14:15:27;;;;;;;23.17;15.07;;;;;;;;;;5044906;28;20071;-76
2022/03/25 14:17:54;;;;;;;24.88;15.10;;;;;;;;;;5041413;28;20029;-76
2022/03/25 14:20:22;;;;;;;21.52;14.43;;;;;;;;;;5051336;28;20074;-76
2022/03/25 14:22:56;;;;;;;23.33;14.02;;;;;;;;;;5042439;28;20525;-76
2022/03/25 14:25:23;;;;;;;23.33;14.80;;;;;;;;;;5031541;28;20049;-76
2022/03/25 14:27:52;;;;;;;25.75;14.60;;;;;;;;;;5050254;28;20027;-76
2022/03/25 14:30:18;;;;;;;28.65;15.27;;;;;;;;;;5050952;28;20041;-76
2022/03/25 14:32:44;;;;;;;30.30;16.83;;;;;;;;;;5050058;28;20025;-76